createdAt,value
2023-05-06T00:01:24.513Z,57193.82
2023-05-06T00:03:57.482Z,57208.64
2023-05-06T00:06:31.058Z,57208.64
2023-05-06T00:09:01.609Z,57211.82
2023-05-06T00:11:32.348Z,57208.64
2023-05-06T00:14:07.744Z,57172.63
2023-05-06T00:16:41.801Z,57172.63
2023-05-06T00:19:13.414Z,57210.76
2023-05-06T00:21:44.057Z,57204.41
2023-05-06T00:24:14.305Z,57229.82
2023-05-06T00:26:46.885Z,57165.22
2023-05-06T00:29:21.864Z,57192.75
2023-05-06T00:31:54.104Z,57192.75
2023-05-06T00:34:25.891Z,57209.70
2023-05-06T00:36:57.649Z,57209.70
2023-05-06T00:39:29.988Z,57183.22
2023-05-06T00:42:01.354Z,57206.52
2023-05-06T00:44:34.969Z,57235.12
2023-05-06T00:47:09.386Z,57235.12
2023-05-06T00:49:40.710Z,57222.41
2023-05-06T00:52:16.173Z,57222.41
2023-05-06T00:54:48.303Z,57215.00
2023-05-06T00:57:18.758Z,57194.88
2023-05-06T00:59:49.203Z,57217.11
2023-05-06T01:02:19.708Z,57217.11
2023-05-06T01:04:50.283Z,57192.75
2023-05-06T01:07:43.637Z,57195.93
2023-05-06T01:10:44.232Z,57210.76
2023-05-06T01:13:23.345Z,57229.82
2023-05-06T01:15:56.454Z,57193.82
2023-05-06T01:18:29.125Z,57225.59
2023-05-06T01:21:00.661Z,57198.05
2023-05-06T01:23:32.570Z,57198.05
2023-05-06T01:26:02.993Z,57210.76
2023-05-06T01:28:33.401Z,57194.88
2023-05-06T01:31:09.478Z,57194.88
2023-05-06T01:33:48.740Z,57182.16
2023-05-06T01:36:47.968Z,57209.70
2023-05-06T01:39:20.650Z,57209.70
2023-05-06T01:41:52.279Z,57173.70
2023-05-06T01:44:24.093Z,57157.81
2023-05-06T01:46:55.248Z,57217.11
2023-05-06T01:49:27.685Z,57160.98
2023-05-06T01:51:58.079Z,57225.59
2023-05-06T01:54:28.428Z,57225.59
2023-05-06T01:56:58.996Z,57182.16
2023-05-06T01:59:29.715Z,57210.76
2023-05-06T02:02:00.470Z,57205.46
2023-05-06T02:04:30.992Z,57205.46
2023-05-06T02:07:01.350Z,57209.70
2023-05-06T02:09:31.911Z,57187.46
2023-05-06T02:12:02.443Z,57195.93
2023-05-06T02:14:33.544Z,57192.75
2023-05-06T02:17:05.452Z,57189.58
2023-05-06T02:19:36.708Z,57189.58
2023-05-06T02:22:07.307Z,57203.34
2023-05-06T02:24:38.016Z,57192.75
2023-05-06T02:27:08.400Z,57223.46
2023-05-06T02:29:38.788Z,57223.46
2023-05-06T02:32:09.166Z,57196.99
2023-05-06T02:34:40.152Z,57192.75
2023-05-06T02:37:10.481Z,57175.81
2023-05-06T02:39:40.643Z,57186.40
2023-05-06T02:42:15.532Z,57173.70
2023-05-06T02:44:46.071Z,57204.41
2023-05-06T02:47:16.375Z,57217.11
2023-05-06T02:49:46.863Z,57190.64
2023-05-06T02:52:17.232Z,57201.23
2023-05-06T02:54:47.644Z,57190.64
2023-05-06T02:57:18.077Z,57170.52
2023-05-06T02:59:48.471Z,57177.93
2023-05-06T03:02:18.930Z,57192.75
2023-05-06T03:04:50.845Z,57174.75
2023-05-06T03:07:22.564Z,57164.16
2023-05-06T03:09:54.468Z,57196.99
2023-05-06T03:12:27.695Z,57196.99
2023-05-06T03:14:59.427Z,57202.29
2023-05-06T03:17:31.733Z,57165.22
2023-05-06T03:20:02.302Z,57194.88
2023-05-06T03:22:35.338Z,57166.28
2023-05-06T03:25:06.483Z,57203.34
2023-05-06T03:27:37.397Z,57195.93
2023-05-06T03:30:08.648Z,57196.99
2023-05-06T03:32:42.583Z,57186.40
2023-05-06T03:35:12.976Z,57186.40
2023-05-06T03:37:44.833Z,57172.63
2023-05-06T03:40:15.406Z,57205.46
2023-05-06T03:42:47.598Z,57165.22
2023-05-06T03:45:18.052Z,57190.64
2023-05-06T03:47:48.620Z,57204.41
2023-05-06T03:50:20.454Z,57204.41
2023-05-06T03:52:51.401Z,57165.22
2023-05-06T03:55:21.894Z,57193.82
2023-05-06T03:57:52.309Z,57200.17
2023-05-06T04:00:22.898Z,57172.63
2023-05-06T04:02:53.447Z,57180.05
2023-05-06T04:05:28.202Z,57170.52
2023-05-06T04:07:58.622Z,57202.29
2023-05-06T04:10:29.726Z,57170.52
2023-05-06T04:13:00.256Z,57204.41
2023-05-06T04:15:30.625Z,57195.93
2023-05-06T04:18:03.506Z,57202.29
2023-05-06T04:20:35.125Z,57202.29
2023-05-06T04:23:07.028Z,57198.05
2023-05-06T04:25:37.390Z,57196.99
2023-05-06T04:28:07.781Z,57173.70
2023-05-06T04:30:38.190Z,57195.93
2023-05-06T04:33:09.275Z,57183.22
2023-05-06T04:35:40.803Z,57183.22
2023-05-06T04:38:11.389Z,57183.22
2023-05-06T04:40:45.281Z,57215.00
2023-05-06T04:43:16.391Z,57178.99
2023-05-06T04:45:46.781Z,57231.94
2023-05-06T04:48:20.926Z,57231.94
2023-05-06T04:50:53.485Z,57204.41
2023-05-06T04:53:23.933Z,57186.40
2023-05-06T04:55:59.747Z,57186.40
2023-05-06T04:58:35.047Z,57199.11
2023-05-06T05:01:09.155Z,57206.52
2023-05-06T05:03:40.398Z,57206.52
2023-05-06T05:06:10.631Z,57201.23
2023-05-06T05:08:41.877Z,57201.23
2023-05-06T05:11:12.214Z,57210.76
2023-05-06T05:13:42.601Z,57198.05
2023-05-06T05:16:14.910Z,57204.41
2023-05-06T05:18:46.974Z,57242.53
2023-05-06T05:21:17.423Z,57222.41
2023-05-06T05:23:47.861Z,57222.41
2023-05-06T05:26:18.928Z,57246.77
2023-05-06T05:28:49.440Z,57224.53
2023-05-06T05:31:21.906Z,57230.88
2023-05-06T05:33:52.488Z,57264.77
2023-05-06T05:36:22.890Z,57228.76
2023-05-06T05:38:53.282Z,57256.30
2023-05-06T05:41:23.719Z,57248.88
2023-05-06T05:43:54.262Z,57248.88
2023-05-06T05:46:24.730Z,57245.71
2023-05-06T05:48:55.247Z,57245.71
2023-05-06T05:51:25.752Z,57227.70
2023-05-06T05:53:56.255Z,57223.46
2023-05-06T05:56:26.739Z,57233.00
2023-05-06T05:58:57.123Z,57272.18
2023-05-06T06:01:27.388Z,57267.95
2023-05-06T06:03:58.070Z,57257.36
2023-05-06T06:06:28.887Z,57242.53
2023-05-06T06:08:59.807Z,57242.53
2023-05-06T06:11:31.554Z,57230.88
2023-05-06T06:14:01.922Z,57263.71
2023-05-06T06:16:32.557Z,57262.65
2023-05-06T06:19:02.973Z,57262.65
2023-05-06T06:21:33.358Z,57293.36
2023-05-06T06:24:06.274Z,57293.36
2023-05-06T06:26:36.674Z,57280.66
2023-05-06T06:29:07.003Z,57314.55
2023-05-06T06:31:39.746Z,57321.96
2023-05-06T06:34:09.523Z,57313.48
2023-05-06T06:36:40.724Z,57313.48
2023-05-06T06:39:11.728Z,57350.55
2023-05-06T06:41:42.480Z,57350.55
2023-05-06T06:44:12.852Z,57335.73
2023-05-06T06:46:43.253Z,57335.73
2023-05-06T06:49:13.718Z,57352.67
2023-05-06T06:51:43.946Z,57373.85
2023-05-06T06:54:14.308Z,57424.69
2023-05-06T06:56:44.690Z,57426.80
2023-05-06T06:59:15.328Z,57388.68
2023-05-06T07:01:45.915Z,57370.68
2023-05-06T07:04:16.227Z,57370.68
2023-05-06T07:06:46.930Z,57380.21
2023-05-06T07:09:17.732Z,57380.21
2023-05-06T07:11:48.179Z,57440.57
2023-05-06T07:14:18.601Z,57440.57
2023-05-06T07:16:51.335Z,57432.10
2023-05-06T07:19:20.896Z,57432.10
2023-05-06T07:21:51.225Z,57441.63
2023-05-06T07:24:21.865Z,57439.52
2023-05-06T07:26:54.213Z,57521.07
2023-05-06T07:29:24.403Z,57521.07
2023-05-06T07:31:54.919Z,57429.98
2023-05-06T07:34:28.352Z,57437.39
2023-05-06T07:36:58.377Z,57509.41
2023-05-06T07:39:28.888Z,57509.41
2023-05-06T07:41:59.184Z,57451.16
2023-05-06T07:44:29.772Z,57451.16
2023-05-06T07:47:00.284Z,57563.43
2023-05-06T07:49:31.064Z,57517.89
2023-05-06T07:52:04.335Z,57518.95
2023-05-06T07:54:34.903Z,57547.54
2023-05-06T07:57:08.178Z,57547.54
2023-05-06T07:59:38.533Z,57542.25
2023-05-06T08:02:09.242Z,57533.77
2023-05-06T08:04:42.637Z,57527.42
2023-05-06T08:07:13.968Z,57527.42
2023-05-06T08:09:44.342Z,57512.59
2023-05-06T08:12:16.103Z,57525.30
2023-05-06T08:14:46.555Z,57525.30
2023-05-06T08:17:18.200Z,57528.48
2023-05-06T08:19:50.049Z,57528.48
2023-05-06T08:22:20.488Z,57540.13
2023-05-06T08:24:50.709Z,57586.73
2023-05-06T08:27:21.472Z,57552.84
2023-05-06T08:29:51.768Z,57559.20
2023-05-06T08:32:22.136Z,57584.61
2023-05-06T08:34:52.491Z,57556.02
2023-05-06T08:37:23.058Z,57522.12
2023-05-06T08:39:53.492Z,57522.12
2023-05-06T08:42:25.808Z,57575.08
2023-05-06T08:44:58.339Z,57575.08
2023-05-06T08:47:29.302Z,57644.98
2023-05-06T08:50:00.742Z,57594.14
2023-05-06T08:52:35.803Z,57600.50
2023-05-06T08:55:07.326Z,57650.28
2023-05-06T08:57:38.581Z,57644.98
2023-05-06T09:00:09.844Z,57619.57
2023-05-06T09:02:43.247Z,57576.14
2023-05-06T09:05:14.041Z,57576.14
2023-05-06T09:07:44.784Z,57688.41
2023-05-06T09:10:15.884Z,57576.14
2023-05-06T09:12:49.095Z,57554.96
2023-05-06T09:15:24.722Z,57613.21
2023-05-06T09:18:00.304Z,57605.80
2023-05-06T09:20:33.620Z,57605.80
2023-05-06T09:23:08.623Z,57621.68
2023-05-06T09:25:39.491Z,57638.63
2023-05-06T09:28:15.612Z,57687.35
2023-05-06T09:30:47.044Z,57696.88
2023-05-06T09:33:24.564Z,57696.88
2023-05-06T09:35:58.477Z,57640.75
2023-05-06T09:38:34.014Z,57640.75
2023-05-06T09:41:06.858Z,57703.24
2023-05-06T09:43:39.671Z,57688.41
2023-05-06T09:46:19.543Z,57654.52
2023-05-06T09:48:57.908Z,57658.75
2023-05-06T09:51:31.302Z,57658.75
2023-05-06T09:54:02.598Z,57685.23
2023-05-06T09:56:34.296Z,57632.27
2023-05-06T09:59:16.672Z,57632.27
2023-05-06T10:01:47.580Z,57613.21
2023-05-06T10:04:19.564Z,57613.21
2023-05-06T10:06:51.851Z,57708.54
2023-05-06T10:09:24.862Z,57708.54
2023-05-06T10:11:55.999Z,57761.49
2023-05-06T10:14:26.595Z,57764.67
2023-05-06T10:16:57.044Z,57764.67
2023-05-06T10:19:28.580Z,57739.25
2023-05-06T10:22:07.911Z,57727.60
2023-05-06T10:24:41.522Z,57757.26
2023-05-06T10:27:13.865Z,57797.51
2023-05-06T10:29:44.760Z,57644.98
2023-05-06T10:32:16.787Z,57715.95
2023-05-06T10:34:50.143Z,57689.47
2023-05-06T10:37:26.308Z,57693.71
2023-05-06T10:40:01.030Z,57693.71
2023-05-06T10:42:37.265Z,57745.61
2023-05-06T10:45:09.124Z,57745.61
2023-05-06T10:48:00.298Z,57772.09
2023-05-06T10:50:30.791Z,57684.18
2023-05-06T10:53:01.196Z,57668.29
2023-05-06T10:55:37.983Z,57668.29
2023-05-06T10:58:16.327Z,57726.54
2023-05-06T11:00:57.088Z,57635.45
2023-05-06T11:03:30.288Z,57635.45
2023-05-06T11:06:06.425Z,57695.82
2023-05-06T11:08:35.009Z,57695.82
2023-05-06T11:11:41.384Z,57666.17
2023-05-06T11:14:29.650Z,57666.17
2023-05-06T11:17:02.845Z,57560.25
2023-05-06T11:19:43.002Z,57504.12
2023-05-06T11:22:16.894Z,57500.94
2023-05-06T11:24:47.269Z,57500.94
2023-05-06T11:27:20.450Z,57494.59
2023-05-06T11:29:53.779Z,57600.50
2023-05-06T11:32:27.046Z,57636.51
2023-05-06T11:34:57.906Z,57597.32
2023-05-06T11:37:29.998Z,57597.32
2023-05-06T11:40:02.915Z,57486.12
2023-05-06T11:42:33.140Z,57526.36
2023-05-06T11:45:03.826Z,57605.80
2023-05-06T11:47:36.108Z,57574.02
2023-05-06T11:50:07.506Z,57582.50
2023-05-06T11:52:44.644Z,57685.23
2023-05-06T11:55:13.103Z,57668.29
2023-05-06T11:57:43.754Z,57668.29
2023-05-06T12:00:14.710Z,57662.99
2023-05-06T12:02:45.841Z,57567.67
2023-05-06T12:05:16.344Z,57567.67
2023-05-06T12:07:47.000Z,57503.06
2023-05-06T12:10:20.400Z,57503.06
2023-05-06T12:12:50.538Z,57642.87
2023-05-06T12:15:20.883Z,57642.87
2023-05-06T12:17:51.492Z,57692.65
2023-05-06T12:20:26.134Z,57692.65
2023-05-06T12:23:07.090Z,57692.65
2023-05-06T12:25:39.534Z,57738.19
2023-05-06T12:28:17.311Z,57730.78
2023-05-06T12:30:49.249Z,57856.82
2023-05-06T12:33:21.132Z,57856.82
2023-05-06T12:35:51.726Z,57858.94
2023-05-06T12:38:22.012Z,57670.41
2023-05-06T12:40:55.772Z,57628.04
2023-05-06T12:43:31.275Z,57684.18
2023-05-06T12:46:08.269Z,57764.67
2023-05-06T12:48:39.910Z,57720.19
2023-05-06T12:51:21.188Z,57693.71
2023-05-06T12:53:51.491Z,57693.71
2023-05-06T12:56:22.204Z,57774.20
2023-05-06T12:59:03.197Z,57759.38
2023-05-06T13:01:33.540Z,57739.25
2023-05-06T13:04:06.270Z,57739.25
2023-05-06T13:06:36.520Z,57804.92
2023-05-06T13:09:06.885Z,57687.35
2023-05-06T13:11:37.713Z,57687.35
2023-05-06T13:14:07.954Z,57786.91
2023-05-06T13:16:54.252Z,57786.91
2023-05-06T13:21:57.563Z,57766.79
2023-05-06T13:24:31.774Z,57693.71
2023-05-06T13:27:03.789Z,57644.98
2023-05-06T13:29:35.347Z,57644.98
2023-05-06T13:32:08.744Z,57642.87
2023-05-06T13:34:38.230Z,57699.00
2023-05-06T13:37:08.473Z,57688.41
2023-05-06T13:39:39.453Z,57684.18
2023-05-06T13:42:09.866Z,57684.18
2023-05-06T13:44:40.352Z,57678.88
2023-05-06T13:47:10.779Z,57712.77
2023-05-06T13:49:41.210Z,57589.91
2023-05-06T13:52:11.498Z,57553.90
2023-05-06T13:54:44.836Z,57605.80
2023-05-06T13:57:16.738Z,57549.66
2023-05-06T13:59:47.360Z,57549.66
2023-05-06T14:02:18.160Z,57615.33
2023-05-06T14:04:48.717Z,57615.33
2023-05-06T14:07:23.392Z,57605.80
2023-05-06T14:09:57.805Z,57551.78
2023-05-06T14:12:29.675Z,57551.78
2023-05-06T14:15:02.498Z,57473.41
2023-05-06T14:17:33.350Z,57463.87
2023-05-06T14:20:06.664Z,57404.57
2023-05-06T14:22:43.885Z,57404.57
2023-05-06T14:25:14.397Z,57418.33
2023-05-06T14:27:46.496Z,57422.57
2023-05-06T14:30:16.932Z,57403.51
2023-05-06T14:33:08.192Z,57415.16
2023-05-06T14:35:42.736Z,57385.50
2023-05-06T14:38:13.364Z,57381.27
2023-05-06T14:40:43.984Z,57377.03
2023-05-06T14:43:14.395Z,57377.03
2023-05-06T14:45:44.935Z,57356.91
2023-05-06T14:48:15.432Z,57356.91
2023-05-06T14:50:46.129Z,57363.26
2023-05-06T14:53:16.770Z,57369.62
2023-05-06T14:55:47.292Z,57368.55
2023-05-06T14:58:18.219Z,57368.55
2023-05-06T15:00:48.549Z,57345.26
2023-05-06T15:03:19.105Z,57355.85
2023-05-06T15:05:49.453Z,57330.43
2023-05-06T15:08:21.792Z,57325.14
2023-05-06T15:10:53.630Z,57325.14
2023-05-06T15:13:26.760Z,57325.14
2023-05-06T15:15:57.515Z,57351.61
2023-05-06T15:18:27.747Z,57351.61
2023-05-06T15:21:02.296Z,57329.37
2023-05-06T15:23:36.053Z,57316.66
2023-05-06T15:26:06.501Z,57308.19
2023-05-06T15:28:54.864Z,57305.01
2023-05-06T15:31:25.736Z,57312.43
2023-05-06T15:34:00.738Z,57305.01
2023-05-06T15:36:31.659Z,57305.01
2023-05-06T15:39:02.102Z,57267.95
2023-05-06T15:41:36.460Z,57317.72
2023-05-06T15:44:07.098Z,57317.72
2023-05-06T15:46:39.906Z,57274.30
2023-05-06T15:49:45.355Z,57298.66
2023-05-06T15:51:46.576Z,57279.59
2023-05-06T15:54:18.985Z,57279.59
2023-05-06T15:56:49.468Z,57298.66
2023-05-06T15:59:20.262Z,57271.13
2023-05-06T16:04:47.882Z,57283.83
2023-05-06T16:07:20.301Z,57294.42
2023-05-06T16:09:58.619Z,57260.54
2023-05-06T16:12:29.255Z,57272.18
2023-05-06T16:15:01.750Z,57281.71
2023-05-06T16:17:43.561Z,57270.06
2023-05-06T16:20:14.210Z,57259.47
2023-05-06T16:23:06.736Z,57259.47
2023-05-06T16:25:37.758Z,57238.29
2023-05-06T16:28:10.599Z,57238.29
2023-05-06T16:30:41.145Z,57278.54
2023-05-06T16:33:11.836Z,57278.54
2023-05-06T16:35:42.283Z,57264.77
2023-05-06T16:38:12.798Z,57264.77
2023-05-06T16:40:46.579Z,57264.77
2023-05-06T16:43:17.676Z,57255.24
2023-05-06T16:45:48.015Z,57227.70
2023-05-06T16:48:18.589Z,57234.06
2023-05-06T16:50:54.570Z,57244.65
2023-05-06T16:53:25.455Z,57237.23
2023-05-06T16:55:55.948Z,57253.12
2023-05-06T16:58:26.587Z,57248.88
2023-05-06T17:00:57.066Z,57245.71
2023-05-06T17:03:27.595Z,57248.88
2023-05-06T17:05:58.031Z,57247.82
2023-05-06T17:08:28.657Z,57247.82
2023-05-06T17:11:01.424Z,57257.36
2023-05-06T17:13:38.267Z,57219.23
2023-05-06T17:16:09.168Z,57219.23
2023-05-06T17:18:40.303Z,57253.12
2023-05-06T17:21:11.702Z,57208.64
2023-05-06T17:23:42.153Z,57208.64
2023-05-06T17:26:12.601Z,57224.53
2023-05-06T17:28:43.111Z,57237.23
2023-05-06T17:31:15.093Z,57221.35
2023-05-06T17:33:45.905Z,57220.29
2023-05-06T17:36:17.895Z,57220.29
2023-05-06T17:38:49.296Z,57225.59
2023-05-06T17:41:19.825Z,57227.70
2023-05-06T17:43:50.196Z,57227.70
2023-05-06T17:46:22.242Z,57208.64
2023-05-06T17:48:56.279Z,57201.23
2023-05-06T17:51:26.871Z,57222.41
2023-05-06T17:53:58.387Z,57242.53
2023-05-06T17:56:28.893Z,57193.82
2023-05-06T17:58:59.309Z,57193.82
2023-05-06T18:01:29.962Z,57235.12
2023-05-06T18:04:00.539Z,57193.82
2023-05-06T18:06:31.491Z,57193.82
2023-05-06T18:09:01.705Z,57176.87
2023-05-06T18:11:32.252Z,57215.00
2023-05-06T18:14:04.155Z,57193.82
2023-05-06T18:16:34.823Z,57218.17
2023-05-06T18:19:05.435Z,57252.06
2023-05-06T18:21:37.115Z,57252.06
2023-05-06T18:24:16.132Z,57220.29
2023-05-06T18:26:45.427Z,57220.29
2023-05-06T18:29:14.650Z,57205.46
2023-05-06T18:31:45.864Z,57230.88
2023-05-06T18:34:16.342Z,57193.82
2023-05-06T18:36:47.868Z,57195.93
2023-05-06T18:39:22.104Z,57195.93
2023-05-06T18:41:55.005Z,57220.29
2023-05-06T18:44:28.300Z,57195.93
2023-05-06T18:47:05.191Z,57196.99
2023-05-06T18:49:35.840Z,57196.99
2023-05-06T18:52:11.409Z,57219.23
2023-05-06T18:54:38.882Z,57208.64
2023-05-06T18:57:12.184Z,57208.64
2023-05-06T18:59:41.728Z,57186.40
2023-05-06T19:02:12.262Z,57192.75
2023-05-06T19:04:47.339Z,57192.75
2023-05-06T19:07:18.573Z,57210.76
2023-05-06T19:09:49.302Z,57180.05
2023-05-06T19:12:19.707Z,57166.28
2023-05-06T19:14:50.396Z,57175.81
2023-05-06T19:17:21.306Z,57186.40
2023-05-06T19:19:53.238Z,57186.40
2023-05-06T19:22:24.218Z,57180.05
2023-05-06T19:24:55.051Z,57193.82
2023-05-06T19:27:25.630Z,57193.82
2023-05-06T19:30:01.889Z,57175.81
2023-05-06T19:32:34.769Z,57169.46
2023-05-06T19:35:04.829Z,57183.22
2023-05-06T19:37:37.531Z,57183.22
2023-05-06T19:40:09.946Z,57187.46
2023-05-06T19:42:46.937Z,57189.58
2023-05-06T19:45:19.984Z,57189.58
2023-05-06T19:47:50.216Z,57215.00
2023-05-06T19:50:22.112Z,57208.64
2023-05-06T19:52:52.651Z,57208.64
2023-05-06T19:55:24.513Z,57163.10
2023-05-06T19:57:58.029Z,57202.29
2023-05-06T20:00:28.674Z,57202.29
2023-05-06T20:03:04.094Z,57191.70
2023-05-06T20:05:37.371Z,57189.58
2023-05-06T20:08:08.162Z,57189.58
2023-05-06T20:10:42.774Z,57168.40
2023-05-06T20:13:15.152Z,57168.40
2023-05-06T20:18:41.125Z,57163.10
2023-05-06T20:21:15.249Z,57170.52
2023-05-06T20:23:45.538Z,57184.29
2023-05-06T20:26:16.026Z,57186.40
2023-05-06T20:28:46.549Z,57186.40
2023-05-06T20:31:16.865Z,57199.11
2023-05-06T20:33:47.265Z,57178.99
2023-05-06T20:36:17.560Z,57178.99
2023-05-06T20:38:47.806Z,57177.93
2023-05-06T20:41:18.178Z,57166.28
2023-05-06T20:43:50.204Z,57186.40
2023-05-06T20:46:23.561Z,57186.40
2023-05-06T20:48:53.919Z,57187.46
2023-05-06T20:51:24.117Z,57159.93
2023-05-06T20:53:58.250Z,57159.93
2023-05-06T20:56:29.839Z,57151.46
2023-05-06T20:59:00.310Z,57178.99
2023-05-06T21:01:30.888Z,57176.87
2023-05-06T21:04:01.557Z,57174.75
2023-05-06T21:06:32.697Z,57198.05
2023-05-06T21:09:03.390Z,57198.05
2023-05-06T21:11:34.432Z,57188.52
2023-05-06T21:14:04.861Z,57138.75
2023-05-06T21:16:37.486Z,57181.11
2023-05-06T21:19:09.503Z,57184.29
2023-05-06T21:21:40.054Z,57184.29
2023-05-06T21:24:10.328Z,57157.81
2023-05-06T21:26:41.090Z,57208.64
2023-05-06T21:29:11.332Z,57163.10
2023-05-06T21:31:41.822Z,57164.16
2023-05-06T21:34:12.371Z,57188.52
2023-05-06T21:36:42.773Z,57145.10
2023-05-06T21:39:14.186Z,57167.34
2023-05-06T21:41:44.508Z,57174.75
2023-05-06T21:44:14.965Z,57174.75
2023-05-06T21:46:45.415Z,57162.04
2023-05-06T21:49:15.819Z,57136.63
2023-05-06T21:51:46.872Z,57136.63
2023-05-06T21:54:17.358Z,57176.87
2023-05-06T21:56:47.763Z,57159.93
2023-05-06T21:59:18.045Z,57159.93
2023-05-06T22:01:48.780Z,57156.75
2023-05-06T22:04:19.250Z,57172.63
2023-05-06T22:06:49.701Z,57172.63
2023-05-06T22:09:23.674Z,57162.04
2023-05-06T22:11:54.075Z,57157.81
2023-05-06T22:14:30.335Z,57183.22
2023-05-06T22:16:58.179Z,57183.22
2023-05-06T22:19:28.522Z,57146.16
2023-05-06T22:22:02.134Z,57182.16
2023-05-06T22:24:32.684Z,57177.93
2023-05-06T22:27:03.016Z,57173.70
2023-05-06T22:29:33.990Z,57162.04
2023-05-06T22:32:06.178Z,57128.16
2023-05-06T22:34:36.657Z,57155.69
2023-05-06T22:37:10.138Z,57162.04
2023-05-06T22:39:40.709Z,57153.57
2023-05-06T22:42:11.004Z,57181.11
2023-05-06T22:44:41.315Z,57181.11
2023-05-06T22:47:11.693Z,57168.40
2023-05-06T22:49:42.112Z,57178.99
2023-05-06T22:52:16.282Z,57178.99
2023-05-06T22:54:47.272Z,57189.58
2023-05-06T22:57:18.413Z,57174.75
2023-05-06T22:59:48.836Z,57174.75
2023-05-06T23:02:19.697Z,57156.75
2023-05-06T23:04:53.327Z,57145.10
2023-05-06T23:07:22.179Z,57152.51
2023-05-06T23:09:52.612Z,57152.51
2023-05-06T23:12:22.920Z,57160.98
2023-05-06T23:14:53.330Z,57162.04
2023-05-06T23:17:23.672Z,57168.40
2023-05-06T23:19:54.192Z,57158.87
2023-05-06T23:22:25.240Z,57163.10
2023-05-06T23:24:56.219Z,57163.10
2023-05-06T23:27:26.890Z,57139.80
2023-05-06T23:29:57.195Z,57195.93
2023-05-06T23:32:27.636Z,57167.34
2023-05-06T23:35:00.960Z,57149.34
2023-05-06T23:37:52.918Z,57155.69
2023-05-06T23:40:23.864Z,57160.98
2023-05-06T23:42:54.226Z,57160.98
2023-05-06T23:45:26.174Z,57177.93
2023-05-06T23:47:56.463Z,57149.34
2023-05-06T23:50:27.113Z,57164.16
2023-05-06T23:52:57.461Z,57153.57
2023-05-06T23:55:28.324Z,57153.57
2023-05-06T23:57:58.848Z,57145.10
